Time;durP1;ratioP1;P1;durP2;ratioP2;P2;SDS_P1;SDS_P2;PMS_P1;PMS_P2;Temp;Humidity;BMP_temperature;BMP_pressure;BME280_temperature;BME280_humidity;BME280_pressure;Samples;Min_cycle;Max_cycle;Signal;HPM_P1;HPM_P2
2023/10/14 05:47:46;;;;;;;17.92;2.25;;;;;;;;;;10496973;28;20404;-85
2023/10/14 05:53:16;;;;;;;4.05;1.40;;;;;;;;;;10496279;28;20052;-85
2023/10/14 05:58:18;;;;;;;3.95;1.40;;;;;;;;;;10519494;28;20115;-87
2023/10/14 06:03:31;;;;;;;6.32;1.75;;;;;;;;;;10520437;28;20029;-87
2023/10/14 06:08:38;;;;;;;7.18;2.65;;;;;;;;;;10517889;28;20031;-84
2023/10/14 06:13:39;;;;;;;15.43;11.00;;;;;;;;;;10521997;28;20039;-83
2023/10/14 06:18:49;;;;;;;13.45;7.65;;;;;;;;;;10524115;28;20029;-85
2023/10/14 06:23:58;;;;;;;5.88;2.00;;;;;;;;;;10534751;28;20449;-85
2023/10/14 06:29:19;;;;;;;4.40;1.25;;;;;;;;;;10531738;28;20032;-86
2023/10/14 06:34:22;;;;;;;6.82;1.90;;;;;;;;;;10516115;28;20035;-85
2023/10/14 06:39:38;;;;;;;8.93;2.30;;;;;;;;;;10515256;28;20055;-85
2023/10/14 06:44:45;;;;;;;7.95;2.35;;;;;;;;;;10514263;28;20028;-85
2023/10/14 06:49:54;;;;;;;9.05;2.88;;;;;;;;;;10513901;28;20024;-85
2023/10/14 06:55:00;;;;;;;5.07;1.55;;;;;;;;;;10508000;28;20050;-85
2023/10/14 07:00:12;;;;;;;3.63;1.75;;;;;;;;;;10491703;28;20031;-83
2023/10/14 07:05:15;;;;;;;4.43;1.70;;;;;;;;;;10499807;28;20173;-82
2023/10/14 07:10:17;;;;;;;3.90;1.48;;;;;;;;;;10501638;28;20028;-83
2023/10/14 07:15:19;;;;;;;5.07;1.60;;;;;;;;;;10517294;28;20033;-81
2023/10/14 07:20:22;;;;;;;4.70;1.75;;;;;;;;;;10517715;28;20407;-78
2023/10/14 07:25:23;;;;;;;5.75;1.98;;;;;;;;;;10492701;28;20483;-79
2023/10/14 07:30:27;;;;;;;6.05;2.20;;;;;;;;;;10499154;28;20029;-79
2023/10/14 07:35:28;;;;;;;10.55;2.42;;;;;;;;;;10498865;28;20508;-79
2023/10/14 07:40:33;;;;;;;5.70;2.20;;;;;;;;;;10506480;28;20028;-79
2023/10/14 07:45:37;;;;;;;7.55;2.50;;;;;;;;;;10514545;28;20084;-80
2023/10/14 07:50:46;;;;;;;8.65;2.80;;;;;;;;;;10509911;28;20028;-80
2023/10/14 07:55:48;;;;;;;7.32;2.80;;;;;;;;;;10507957;28;20023;-80
2023/10/14 08:00:49;;;;;;;7.40;2.80;;;;;;;;;;10507316;28;20032;-80
2023/10/14 08:06:00;;;;;;;9.48;2.58;;;;;;;;;;10507783;28;20031;-80
2023/10/14 08:11:01;;;;;;;6.75;2.53;;;;;;;;;;10508066;28;20024;-80
2023/10/14 08:16:07;;;;;;;8.00;2.65;;;;;;;;;;10506398;28;20048;-79
2023/10/14 08:21:11;;;;;;;9.35;3.28;;;;;;;;;;10524361;28;20074;-80
2023/10/14 08:26:16;;;;;;;9.18;3.75;;;;;;;;;;10499363;28;20041;-80
2023/10/14 08:31:17;;;;;;;9.75;3.30;;;;;;;;;;10499906;28;20040;-80
2023/10/14 08:36:45;;;;;;;10.00;3.50;;;;;;;;;;10506988;28;20040;-81
2023/10/14 08:41:58;;;;;;;8.10;3.10;;;;;;;;;;10520006;28;20096;-79
2023/10/14 08:47:00;;;;;;;7.45;2.80;;;;;;;;;;10525477;28;20028;-80
2023/10/14 08:52:04;;;;;;;6.75;2.92;;;;;;;;;;10530371;28;20020;-82
2023/10/14 08:57:07;;;;;;;8.73;2.92;;;;;;;;;;10512182;28;20079;-82
2023/10/14 09:02:12;;;;;;;10.50;2.60;;;;;;;;;;10508711;28;20025;-80
2023/10/14 09:07:14;;;;;;;7.57;2.42;;;;;;;;;;10514162;28;20063;-81
2023/10/14 09:12:15;;;;;;;5.47;2.30;;;;;;;;;;10523627;28;20028;-82
2023/10/14 09:17:16;;;;;;;11.05;4.40;;;;;;;;;;10489084;28;20036;-82
2023/10/14 09:22:21;;;;;;;9.02;2.75;;;;;;;;;;10494160;28;20479;-82
2023/10/14 09:27:22;;;;;;;7.22;2.97;;;;;;;;;;10504320;28;20044;-82
2023/10/14 09:32:25;;;;;;;11.02;3.00;;;;;;;;;;10506419;28;20408;-82
2023/10/14 09:37:26;;;;;;;7.57;3.22;;;;;;;;;;10494108;28;20025;-82
2023/10/14 09:42:29;;;;;;;9.60;3.50;;;;;;;;;;10491483;28;20031;-81
2023/10/14 09:47:31;;;;;;;11.38;3.28;;;;;;;;;;10488815;28;20028;-81
2023/10/14 09:52:35;;;;;;;11.93;2.95;;;;;;;;;;10492386;28;20028;-84
2023/10/14 09:57:38;;;;;;;9.25;3.05;;;;;;;;;;10493891;28;20025;-81
2023/10/14 10:02:43;;;;;;;6.18;2.85;;;;;;;;;;10493202;28;20493;-82
2023/10/14 10:08:02;;;;;;;6.30;3.47;;;;;;;;;;10493096;28;20116;-81
2023/10/14 10:13:03;;;;;;;9.57;3.33;;;;;;;;;;10515173;28;20088;-82
2023/10/14 10:18:04;;;;;;;9.10;3.17;;;;;;;;;;10535585;28;20043;-80
2023/10/14 10:23:06;;;;;;;9.30;3.58;;;;;;;;;;10521804;28;20027;-81
2023/10/14 10:28:35;;;;;;;8.98;3.35;;;;;;;;;;10521727;28;20016;-80
2023/10/14 10:33:45;;;;;;;11.77;4.07;;;;;;;;;;10543627;28;20049;-81
2023/10/14 10:38:46;;;;;;;;;;;;;;;;;;10539662;28;20392;-82
2023/10/14 10:43:47;;;;;;;;;;;;;;;;;;10515755;28;19928;-83
2023/10/14 10:48:49;;;;;;;8.40;3.35;;;;;;;;;;10507318;28;20347;-84
2023/10/14 10:53:52;;;;;;;7.53;3.15;;;;;;;;;;10485271;28;20202;-83
2023/10/14 10:59:14;;;;;;;8.65;2.95;;;;;;;;;;10521837;28;20021;-83
2023/10/14 11:04:19;;;;;;;7.88;1.92;;;;;;;;;;10494581;28;20033;-83
2023/10/14 11:09:23;;;;;;;9.02;2.88;;;;;;;;;;10510019;28;20075;-82
2023/10/14 11:14:26;;;;;;;10.82;2.40;;;;;;;;;;10505730;28;20070;-85
2023/10/14 11:19:30;;;;;;;9.05;2.65;;;;;;;;;;10507676;28;20027;-83
2023/10/14 11:24:35;;;;;;;7.22;2.67;;;;;;;;;;10510217;28;20120;-83
2023/10/14 11:29:36;;;;;;;11.15;2.55;;;;;;;;;;10506097;28;20618;-84
2023/10/14 11:34:37;;;;;;;7.78;2.30;;;;;;;;;;10507648;28;20020;-84
2023/10/14 11:39:43;;;;;;;6.43;2.85;;;;;;;;;;10501633;28;20023;-84
2023/10/14 11:45:25;;;;;;;7.10;2.67;;;;;;;;;;10503812;28;20082;-84
2023/10/14 11:50:26;;;;;;;7.78;2.67;;;;;;;;;;10498315;28;20020;-83
2023/10/14 11:55:28;;;;;;;7.43;2.70;;;;;;;;;;10496802;28;20124;-82
2023/10/14 12:00:33;;;;;;;7.30;2.60;;;;;;;;;;10497257;28;20040;-85
2023/10/14 12:05:59;;;;;;;6.43;1.95;;;;;;;;;;10492640;28;20504;-85
2023/10/14 12:11:08;;;;;;;5.88;2.33;;;;;;;;;;10496413;28;20090;-82
2023/10/14 12:16:10;;;;;;;8.02;1.70;;;;;;;;;;10488649;28;20047;-85
2023/10/14 12:21:12;;;;;;;7.63;1.90;;;;;;;;;;10496267;28;20027;-85
2023/10/14 12:26:13;;;;;;;8.73;2.60;;;;;;;;;;10514649;28;20052;-84
2023/10/14 12:31:15;;;;;;;6.50;2.05;;;;;;;;;;10495267;28;20028;-85
2023/10/14 12:36:17;;;;;;;4.50;1.50;;;;;;;;;;10489804;28;20048;-82
2023/10/14 12:41:24;;;;;;;6.15;1.80;;;;;;;;;;10487048;28;20423;-82
2023/10/14 12:46:31;;;;;;;5.22;1.83;;;;;;;;;;10485745;28;20044;-82
2023/10/14 12:51:35;;;;;;;6.40;1.60;;;;;;;;;;10485445;28;20037;-84
2023/10/14 12:56:38;;;;;;;5.88;1.98;;;;;;;;;;10487363;28;20100;-84
2023/10/14 13:01:46;;;;;;;5.65;1.52;;;;;;;;;;10499917;28;20020;-84
2023/10/14 13:06:49;;;;;;;7.40;2.10;;;;;;;;;;10516547;28;20041;-82
2023/10/14 13:11:50;;;;;;;5.78;1.55;;;;;;;;;;10488929;28;20492;-82
2023/10/14 13:16:51;;;;;;;4.70;1.58;;;;;;;;;;10491272;28;20025;-83
2023/10/14 13:21:54;;;;;;;6.78;2.03;;;;;;;;;;10522053;28;20055;-84
2023/10/14 13:26:55;;;;;;;5.55;1.73;;;;;;;;;;10496565;28;20526;-85
2023/10/14 13:31:56;;;;;;;5.97;1.73;;;;;;;;;;10519864;28;20020;-83
2023/10/14 13:36:57;;;;;;;12.25;6.50;;;;;;;;;;10491380;28;20400;-86
2023/10/14 13:41:58;;;;;;;4.30;1.50;;;;;;;;;;10488161;28;20052;-84
2023/10/14 13:47:04;;;;;;;5.47;1.50;;;;;;;;;;10508327;28;20082;-86
2023/10/14 13:52:05;;;;;;;5.88;1.45;;;;;;;;;;10488214;28;20035;-84
2023/10/14 13:57:06;;;;;;;5.78;1.67;;;;;;;;;;10505950;28;20044;-86
2023/10/14 14:02:07;;;;;;;4.13;1.50;;;;;;;;;;10488214;28;20119;-84
2023/10/14 14:07:10;;;;;;;6.18;1.17;;;;;;;;;;10499204;28;20030;-83
2023/10/14 14:12:11;;;;;;;6.85;1.60;;;;;;;;;;10494113;28;20024;-82
2023/10/14 14:17:12;;;;;;;6.60;1.45;;;;;;;;;;10489140;28;20127;-82
2023/10/14 14:22:14;;;;;;;5.22;1.90;;;;;;;;;;10494943;28;20116;-83
2023/10/14 14:27:15;;;;;;;5.15;1.77;;;;;;;;;;10499523;28;20032;-84
2023/10/14 14:32:16;;;;;;;4.47;1.60;;;;;;;;;;10497494;28;20063;-84
2023/10/14 14:37:17;;;;;;;4.78;1.23;;;;;;;;;;10498800;28;20033;-84
2023/10/14 14:42:21;;;;;;;5.20;2.00;;;;;;;;;;10490925;28;20017;-86
2023/10/14 14:47:24;;;;;;;6.47;1.88;;;;;;;;;;10490930;28;20024;-86
2023/10/14 14:52:26;;;;;;;5.65;1.50;;;;;;;;;;10488890;28;20439;-85
2023/10/14 14:57:27;;;;;;;6.82;1.73;;;;;;;;;;10495940;28;20029;-84
2023/10/14 15:02:28;;;;;;;4.03;1.40;;;;;;;;;;10491064;28;20028;-82
2023/10/14 15:07:32;;;;;;;4.53;1.35;;;;;;;;;;10494037;28;20047;-85
2023/10/14 15:12:34;;;;;;;5.18;1.58;;;;;;;;;;10495130;28;20567;-84
2023/10/14 15:17:38;;;;;;;4.43;1.73;;;;;;;;;;10513051;28;20036;-82
2023/10/14 15:22:39;;;;;;;5.03;1.20;;;;;;;;;;10489765;28;20543;-84
2023/10/14 15:27:42;;;;;;;4.90;1.10;;;;;;;;;;10494938;28;20075;-85
2023/10/14 15:32:45;;;;;;;4.68;1.30;;;;;;;;;;10495480;28;20032;-83
2023/10/14 15:37:46;;;;;;;4.75;1.73;;;;;;;;;;10496925;28;20052;-85
2023/10/14 15:42:48;;;;;;;4.85;1.23;;;;;;;;;;10485130;28;20020;-86
2023/10/14 15:48:08;;;;;;;4.05;1.10;;;;;;;;;;10488134;28;20141;-87
2023/10/14 15:53:11;;;;;;;10.13;3.90;;;;;;;;;;10490618;28;20119;-86
2023/10/14 15:58:22;;;;;;;4.20;1.13;;;;;;;;;;10507996;28;20032;-86
2023/10/14 16:03:23;;;;;;;4.15;1.23;;;;;;;;;;10487822;28;20514;-86
2023/10/14 16:08:25;;;;;;;3.83;1.30;;;;;;;;;;10486232;28;20488;-86
2023/10/14 16:13:26;;;;;;;5.47;1.60;;;;;;;;;;10487506;28;20020;-86
2023/10/14 16:18:28;;;;;;;3.70;1.30;;;;;;;;;;10504937;28;20107;-83
2023/10/14 16:23:31;;;;;;;2.55;1.00;;;;;;;;;;10492711;28;20024;-82
2023/10/14 16:28:32;;;;;;;8.95;4.93;;;;;;;;;;10521527;28;20033;-83
2023/10/14 16:33:33;;;;;;;3.35;1.30;;;;;;;;;;10488942;28;20552;-81
2023/10/14 16:38:34;;;;;;;3.10;1.20;;;;;;;;;;10487894;28;20115;-81
2023/10/14 16:43:35;;;;;;;5.28;1.30;;;;;;;;;;10488092;28;20138;-82
2023/10/14 16:48:36;;;;;;;6.60;1.58;;;;;;;;;;10485827;28;20077;-82
2023/10/14 16:53:37;;;;;;;5.05;1.27;;;;;;;;;;10502992;28;20021;-83
2023/10/14 16:58:38;;;;;;;4.28;1.48;;;;;;;;;;10486412;28;20031;-84
2023/10/14 17:03:39;;;;;;;5.53;1.48;;;;;;;;;;10486531;28;20024;-81
2023/10/14 17:08:41;;;;;;;6.07;1.67;;;;;;;;;;10485304;28;20584;-82
2023/10/14 17:13:43;;;;;;;3.47;1.50;;;;;;;;;;10486395;28;20055;-82
2023/10/14 17:18:45;;;;;;;3.58;1.38;;;;;;;;;;10484523;28;20024;-82
2023/10/14 17:23:46;;;;;;;6.88;5.15;;;;;;;;;;10485402;28;20052;-82
2023/10/14 17:28:47;;;;;;;3.90;1.50;;;;;;;;;;10504532;28;20025;-82
2023/10/14 17:33:48;;;;;;;5.45;1.73;;;;;;;;;;10484918;28;20063;-82
2023/10/14 17:38:49;;;;;;;4.03;1.38;;;;;;;;;;10484054;28;20067;-83
2023/10/14 17:43:50;;;;;;;5.63;1.88;;;;;;;;;;10485160;28;20039;-83
2023/10/14 17:48:52;;;;;;;5.82;1.60;;;;;;;;;;10487686;28;20068;-83
2023/10/14 17:53:53;;;;;;;2.95;1.27;;;;;;;;;;10486458;28;20078;-82
2023/10/14 17:58:54;;;;;;;3.00;1.30;;;;;;;;;;10488726;28;20029;-84
2023/10/14 18:03:59;;;;;;;3.05;1.27;;;;;;;;;;10502699;28;20063;-86
2023/10/14 18:09:01;;;;;;;4.18;1.70;;;;;;;;;;10510317;28;20107;-84
2023/10/14 18:14:04;;;;;;;7.85;2.30;;;;;;;;;;10529229;28;20028;-83
2023/10/14 18:19:05;;;;;;;4.30;1.30;;;;;;;;;;10530709;28;20039;-82
2023/10/14 18:24:09;;;;;;;3.47;1.20;;;;;;;;;;10486491;28;20132;-84
2023/10/14 18:29:13;;;;;;;5.65;1.63;;;;;;;;;;10503651;28;20021;-84
2023/10/14 18:34:16;;;;;;;3.47;1.38;;;;;;;;;;10468326;28;20048;-84
2023/10/14 18:39:19;;;;;;;3.90;1.42;;;;;;;;;;10485014;28;20020;-84
2023/10/14 18:44:20;;;;;;;4.93;1.92;;;;;;;;;;10481700;28;20032;-87
2023/10/14 18:49:22;;;;;;;4.55;1.75;;;;;;;;;;10499773;28;20028;-87
2023/10/14 18:54:24;;;;;;;5.03;1.52;;;;;;;;;;10507118;28;20500;-86
2023/10/14 18:59:26;;;;;;;3.95;1.60;;;;;;;;;;10492263;28;20048;-87
2023/10/14 19:04:30;;;;;;;5.00;1.60;;;;;;;;;;10509449;28;20035;-87
2023/10/14 19:09:32;;;;;;;4.25;1.40;;;;;;;;;;10507840;28;20369;-86
